createdAt,value
2022-08-27T00:00:22.161Z,997.76
2022-08-27T00:05:22.073Z,997.82
2022-08-27T00:10:22.043Z,997.80
2022-08-27T00:15:21.953Z,997.82
2022-08-27T00:20:21.905Z,997.82
2022-08-27T00:25:21.842Z,997.69
2022-08-27T00:30:21.776Z,997.82
2022-08-27T00:35:21.718Z,997.84
2022-08-27T00:40:21.734Z,997.91
2022-08-27T00:45:21.612Z,997.91
2022-08-27T00:50:21.527Z,997.85
2022-08-27T00:55:21.483Z,997.90
2022-08-27T01:00:21.399Z,997.87
2022-08-27T01:05:21.341Z,997.85
2022-08-27T01:10:21.280Z,997.82
2022-08-27T01:15:21.211Z,997.73
2022-08-27T01:20:21.172Z,997.82
2022-08-27T01:25:21.075Z,997.79
2022-08-27T01:30:21.009Z,997.86
2022-08-27T01:35:20.941Z,997.91
2022-08-27T01:40:20.925Z,997.88
2022-08-27T01:45:20.816Z,997.90
2022-08-27T01:50:20.759Z,997.82
2022-08-27T01:55:20.705Z,997.78
2022-08-27T02:00:20.894Z,997.76
2022-08-27T02:05:20.593Z,997.65
2022-08-27T02:10:20.519Z,997.70
2022-08-27T02:15:20.448Z,997.73
2022-08-27T02:20:20.379Z,997.73
2022-08-27T02:25:20.320Z,997.67
2022-08-27T02:30:20.249Z,997.56
2022-08-27T02:35:20.190Z,997.51
2022-08-27T02:40:20.188Z,997.49
2022-08-27T02:45:20.064Z,997.51
2022-08-27T02:50:19.993Z,997.48
2022-08-27T02:55:19.933Z,997.44
2022-08-27T03:00:19.939Z,997.41
2022-08-27T03:05:19.839Z,997.31
2022-08-27T03:10:19.743Z,997.39
2022-08-27T03:15:19.695Z,997.42
2022-08-27T03:20:19.627Z,997.46
2022-08-27T03:25:19.580Z,997.61
2022-08-27T03:30:19.496Z,997.60
2022-08-27T03:35:19.447Z,997.60
2022-08-27T03:40:19.404Z,997.63
2022-08-27T03:45:19.319Z,997.66
2022-08-27T03:50:19.237Z,997.79
2022-08-27T03:55:19.170Z,997.76
2022-08-27T04:00:19.098Z,997.71
2022-08-27T04:05:19.036Z,997.69
2022-08-27T04:10:19.086Z,997.73
2022-08-27T04:15:18.932Z,997.69
2022-08-27T04:20:35.024Z,997.68
2022-08-27T04:25:19.783Z,997.74
2022-08-27T04:30:18.738Z,997.74
2022-08-27T04:35:18.656Z,997.69
2022-08-27T04:40:18.610Z,997.77
2022-08-27T04:45:18.517Z,997.72
2022-08-27T04:50:18.453Z,997.76
2022-08-27T04:55:18.392Z,997.74
2022-08-27T05:00:18.319Z,997.75
2022-08-27T05:05:18.316Z,997.70
2022-08-27T05:10:18.215Z,997.68
2022-08-27T05:15:18.322Z,997.63
2022-08-27T05:20:18.088Z,997.58
2022-08-27T05:25:18.041Z,997.74
2022-08-27T05:30:17.943Z,997.75
2022-08-27T05:35:17.896Z,997.65
2022-08-27T05:40:17.850Z,997.52
2022-08-27T05:45:17.754Z,997.60
2022-08-27T05:50:20.711Z,997.54
2022-08-27T05:55:18.666Z,997.57
2022-08-27T06:00:17.580Z,997.65
2022-08-27T06:05:17.566Z,997.71
2022-08-27T06:10:17.455Z,997.73
2022-08-27T06:15:17.378Z,997.77
2022-08-27T06:20:17.488Z,997.77
2022-08-27T06:25:17.251Z,997.78
2022-08-27T06:30:17.708Z,997.84
2022-08-27T06:35:17.131Z,997.91
2022-08-27T06:40:17.093Z,997.91
2022-08-27T06:45:17.012Z,997.92
2022-08-27T06:50:20.199Z,997.92
2022-08-27T06:55:16.894Z,998.01
2022-08-27T07:00:16.876Z,998.00
2022-08-27T07:05:16.757Z,998.07
2022-08-27T07:10:16.677Z,998.05
2022-08-27T07:15:16.629Z,998.06
2022-08-27T07:20:16.557Z,998.19
2022-08-27T07:25:16.665Z,998.08
2022-08-27T07:30:16.429Z,998.08
2022-08-27T07:35:16.386Z,998.04
2022-08-27T07:40:16.375Z,998.09
2022-08-27T07:45:16.258Z,998.20
2022-08-27T07:50:16.191Z,998.25
2022-08-27T07:55:16.121Z,998.33
2022-08-27T08:00:16.051Z,998.34
2022-08-27T08:05:16.108Z,998.33
2022-08-27T08:10:15.932Z,998.38
2022-08-27T08:15:15.864Z,998.43
2022-08-27T08:20:24.161Z,998.42
2022-08-27T08:25:16.892Z,998.42
2022-08-27T08:30:16.254Z,998.43
2022-08-27T08:35:15.727Z,998.52
2022-08-27T08:40:15.612Z,998.44
2022-08-27T08:45:15.528Z,998.58
2022-08-27T08:50:19.577Z,998.51
2022-08-27T08:55:15.707Z,998.60
2022-08-27T09:00:15.301Z,998.69
2022-08-27T09:05:15.290Z,998.77
2022-08-27T09:10:15.175Z,998.73
2022-08-27T09:15:15.143Z,998.74
2022-08-27T09:20:15.081Z,998.86
2022-08-27T09:25:19.000Z,998.84
2022-08-27T09:30:15.968Z,998.86
2022-08-27T09:35:15.014Z,998.85
2022-08-27T09:40:23.155Z,998.88
2022-08-27T09:45:15.706Z,998.76
2022-08-27T09:50:14.753Z,998.80
2022-08-27T09:55:14.620Z,998.82
2022-08-27T10:00:14.545Z,998.81
2022-08-27T10:05:14.459Z,998.82
2022-08-27T10:10:14.451Z,998.82
2022-08-27T10:15:14.331Z,998.89
2022-08-27T10:20:14.358Z,998.87
2022-08-27T10:25:14.219Z,998.88
2022-08-27T10:30:14.209Z,998.87
2022-08-27T10:35:14.061Z,998.83
2022-08-27T10:40:14.267Z,998.83
2022-08-27T10:45:13.945Z,998.85
2022-08-27T10:50:14.964Z,998.86
2022-08-27T10:55:14.004Z,998.86
2022-08-27T11:00:13.785Z,998.90
2022-08-27T11:05:13.684Z,998.85
2022-08-27T11:10:13.611Z,998.85
2022-08-27T11:15:13.539Z,998.84
2022-08-27T11:20:13.518Z,998.89
2022-08-27T11:25:13.513Z,998.90
2022-08-27T11:30:13.410Z,998.92
2022-08-27T11:35:13.390Z,998.96
2022-08-27T11:40:13.700Z,998.98
2022-08-27T11:45:13.334Z,998.97
2022-08-27T11:50:13.082Z,998.90
2022-08-27T11:55:13.039Z,998.86
2022-08-27T12:00:12.943Z,998.84
2022-08-27T12:08:06.016Z,998.85
2022-08-27T12:13:00.530Z,998.75
2022-08-27T12:17:58.333Z,998.75
2022-08-27T12:22:58.284Z,998.71
2022-08-27T12:27:58.271Z,998.70
2022-08-27T12:32:58.201Z,998.71
2022-08-27T12:37:58.285Z,998.77
2022-08-27T12:42:58.239Z,998.80
2022-08-27T12:47:59.236Z,998.75
2022-08-27T12:52:57.946Z,998.61
2022-08-27T12:57:57.835Z,998.64
2022-08-27T13:02:58.112Z,998.70
2022-08-27T13:07:57.685Z,998.77
2022-08-27T13:12:57.605Z,998.71
2022-08-27T13:17:57.561Z,998.69
2022-08-27T13:22:57.462Z,998.72
2022-08-27T13:27:57.436Z,998.65
2022-08-27T13:32:57.362Z,998.65
2022-08-27T13:37:57.301Z,998.70
2022-08-27T13:42:57.424Z,998.75
2022-08-27T13:47:57.272Z,998.73
2022-08-27T13:52:57.107Z,998.64
2022-08-27T13:57:57.015Z,998.63
2022-08-27T14:02:57.098Z,998.68
2022-08-27T14:07:56.906Z,998.66
2022-08-27T14:12:57.050Z,998.60
2022-08-27T14:17:56.737Z,998.62
2022-08-27T14:22:56.678Z,998.60
2022-08-27T14:27:56.724Z,998.70
2022-08-27T14:32:57.204Z,998.67
2022-08-27T14:37:56.645Z,998.65
2022-08-27T14:42:56.528Z,998.77
2022-08-27T14:47:59.091Z,998.76
2022-08-27T14:52:57.321Z,998.79
2022-08-27T14:57:56.251Z,998.75
2022-08-27T15:02:56.257Z,998.73
2022-08-27T15:07:56.352Z,998.77
2022-08-27T15:12:56.121Z,998.64
2022-08-27T15:17:56.008Z,998.73
2022-08-27T15:22:55.937Z,998.80
2022-08-27T15:27:55.882Z,998.69
2022-08-27T15:32:55.779Z,998.69
2022-08-27T15:37:55.749Z,998.67
2022-08-27T15:42:55.630Z,998.70
2022-08-27T15:47:55.583Z,998.60
2022-08-27T15:52:55.573Z,998.71
2022-08-27T15:57:55.501Z,998.69
2022-08-27T16:02:55.649Z,998.78
2022-08-27T16:07:55.294Z,998.74
2022-08-27T16:12:55.340Z,998.67
2022-08-27T16:17:55.194Z,998.70
2022-08-27T16:22:55.108Z,998.66
2022-08-27T16:27:55.184Z,998.54
2022-08-27T16:32:55.017Z,998.50
2022-08-27T16:37:56.805Z,998.45
2022-08-27T16:42:55.362Z,998.45
2022-08-27T16:47:54.766Z,998.52
2022-08-27T16:52:54.842Z,998.57
2022-08-27T16:57:54.691Z,998.52
2022-08-27T17:02:55.016Z,998.46
2022-08-27T17:07:54.551Z,998.60
2022-08-27T17:12:54.552Z,998.75
2022-08-27T17:17:54.433Z,998.84
2022-08-27T17:22:54.319Z,998.89
2022-08-27T17:27:58.049Z,998.89
2022-08-27T17:32:55.314Z,998.92
2022-08-27T17:37:54.144Z,998.93
2022-08-27T17:42:54.412Z,999.09
2022-08-27T17:47:54.990Z,999.08
2022-08-27T17:52:53.920Z,999.14
2022-08-27T17:57:53.878Z,999.19
2022-08-27T18:02:53.833Z,999.16
2022-08-27T18:07:53.822Z,999.22
2022-08-27T18:12:54.683Z,999.26
2022-08-27T18:17:53.763Z,999.35
2022-08-27T18:22:53.604Z,999.37
2022-08-27T18:27:53.468Z,999.40
2022-08-27T18:32:53.435Z,999.39
2022-08-27T18:37:53.374Z,999.43
2022-08-27T18:42:53.285Z,999.62
2022-08-27T18:47:53.319Z,999.61
2022-08-27T18:52:53.207Z,999.65
2022-08-27T18:57:53.354Z,999.66
2022-08-27T19:02:53.200Z,999.69
2022-08-27T19:07:52.968Z,999.70
2022-08-27T19:12:52.986Z,999.77
2022-08-27T19:17:53.090Z,999.75
2022-08-27T19:22:52.921Z,999.79
2022-08-27T19:27:52.749Z,999.94
2022-08-27T19:32:54.892Z,999.96
2022-08-27T19:37:53.224Z,999.94
2022-08-27T19:42:52.550Z,999.96
2022-08-27T19:47:52.635Z,999.96
2022-08-27T19:52:52.364Z,999.92
2022-08-27T19:57:52.587Z,999.82
2022-08-27T20:02:52.298Z,999.90
2022-08-27T20:07:52.275Z,999.88
2022-08-27T20:12:52.143Z,999.89
2022-08-27T20:17:52.208Z,999.91
2022-08-27T20:22:52.325Z,999.92
2022-08-27T20:27:51.930Z,999.92
2022-08-27T20:32:52.036Z,999.92
2022-08-27T20:37:51.890Z,999.86
2022-08-27T20:42:51.777Z,999.87
2022-08-27T20:47:52.198Z,999.90
2022-08-27T20:52:51.883Z,999.92
2022-08-27T20:57:51.574Z,999.96
2022-08-27T21:02:51.494Z,999.96
2022-08-27T21:07:51.412Z,999.90
2022-08-27T21:12:51.347Z,999.92
2022-08-27T21:17:51.275Z,999.82
2022-08-27T21:22:51.267Z,999.94
2022-08-27T21:27:51.244Z,999.97
2022-08-27T21:32:51.108Z,999.96
2022-08-27T21:37:51.041Z,999.88
2022-08-27T21:42:50.986Z,999.97
2022-08-27T21:47:50.897Z,999.94
2022-08-27T21:52:50.810Z,999.92
2022-08-27T21:57:50.765Z,999.89
2022-08-27T22:02:50.720Z,999.98
2022-08-27T22:07:50.624Z,999.93
2022-08-27T22:12:50.579Z,1000.00
2022-08-27T22:17:51.407Z,1000.00
2022-08-27T22:22:50.396Z,999.99
2022-08-27T22:27:50.388Z,999.95
2022-08-27T22:32:50.454Z,999.82
2022-08-27T22:37:50.212Z,999.88
2022-08-27T22:42:50.157Z,999.90
2022-08-27T22:47:50.068Z,999.87
2022-08-27T22:52:50.000Z,999.96
2022-08-27T22:57:49.943Z,999.95
2022-08-27T23:02:49.891Z,999.98
2022-08-27T23:07:49.823Z,999.99
2022-08-27T23:12:49.751Z,999.98
2022-08-27T23:17:49.694Z,1000.06
2022-08-27T23:22:49.612Z,1000.07
2022-08-27T23:27:49.561Z,1000.08
2022-08-27T23:32:52.700Z,1000.17
2022-08-27T23:37:49.517Z,1000.14
2022-08-27T23:42:49.345Z,1000.15
2022-08-27T23:47:49.275Z,1000.21
2022-08-27T23:52:49.255Z,1000.18
2022-08-27T23:57:49.149Z,1000.11
